Time;durP1;ratioP1;P1;durP2;ratioP2;P2;SDS_P1;SDS_P2;PMS_P1;PMS_P2;Temp;Humidity;BMP_temperature;BMP_pressure;BME280_temperature;BME280_humidity;BME280_pressure;Samples;Min_cycle;Max_cycle;Signal;HPM_P1;HPM_P2
2023/06/30 00:02:23;;;;;;;10.20;5.32;;;;;;;15.65;95.11;101421.31;4997134;28;20030;-56
2023/06/30 00:04:48;;;;;;;11.00;5.65;;;;;;;15.62;94.40;101418.66;4997584;28;20029;-55
2023/06/30 00:07:14;;;;;;;10.65;4.93;;;;;;;15.58;94.00;101416.84;4997552;28;20030;-56
2023/06/30 00:09:39;;;;;;;11.40;5.53;;;;;;;15.48;93.26;101421.09;4998004;28;20026;-57
2023/06/30 00:12:05;;;;;;;10.45;5.45;;;;;;;15.39;93.79;101419.22;4997916;28;20030;-57
2023/06/30 00:14:30;;;;;;;11.00;5.20;;;;;;;15.33;94.01;101419.16;4997449;28;20473;-57
2023/06/30 00:16:56;;;;;;;13.00;5.00;;;;;;;15.31;93.86;101423.53;4997488;28;20032;-56
2023/06/30 00:19:23;;;;;;;11.80;5.00;;;;;;;15.30;94.17;101421.75;4995066;28;20031;-56
2023/06/30 00:21:52;;;;;;;11.05;4.85;;;;;;;15.26;94.01;101427.81;4978203;28;20042;-56
2023/06/30 00:24:18;;;;;;;11.40;5.07;;;;;;;15.22;94.22;101426.00;4992386;28;20026;-56
2023/06/30 00:26:43;;;;;;;12.43;5.32;;;;;;;15.18;94.28;101418.94;4995821;28;20088;-56
2023/06/30 00:29:09;;;;;;;12.82;5.35;;;;;;;15.16;94.29;101415.44;4995564;28;20022;-57
2023/06/30 00:31:34;;;;;;;13.98;5.43;;;;;;;15.10;93.92;101419.72;4996716;28;20529;-56
2023/06/30 00:34:00;;;;;;;12.65;4.70;;;;;;;15.07;93.80;101416.19;4993773;28;20026;-56
2023/06/30 00:36:25;;;;;;;11.13;5.18;;;;;;;15.01;94.26;101408.22;4995475;28;20044;-56
2023/06/30 00:38:54;;;;;;;13.85;5.43;;;;;;;14.94;94.24;101413.38;4991853;28;20407;-56
2023/06/30 00:41:20;;;;;;;12.13;4.80;;;;;;;14.89;94.11;101416.81;4970877;28;20057;-56
2023/06/30 00:43:46;;;;;;;11.70;5.35;;;;;;;14.80;94.42;101408.78;4986481;28;20049;-56
2023/06/30 00:46:13;;;;;;;12.20;5.20;;;;;;;14.72;94.71;101406.91;4988558;28;20042;-56
2023/06/30 00:48:39;;;;;;;13.43;5.10;;;;;;;14.68;94.85;101407.72;4987748;28;20030;-56
2023/06/30 00:51:05;;;;;;;15.40;5.00;;;;;;;14.61;95.20;101411.06;4991574;28;20093;-56
2023/06/30 00:53:30;;;;;;;8.85;4.60;;;;;;;14.57;95.33;101406.63;4973495;28;20054;-56
2023/06/30 00:55:56;;;;;;;13.05;5.05;;;;;;;14.54;94.94;101406.59;4988406;28;20034;-57
2023/06/30 00:58:22;;;;;;;12.98;4.70;;;;;;;14.55;95.20;101408.38;4987599;28;20040;-56
2023/06/30 01:00:49;;;;;;;9.65;4.93;;;;;;;14.54;94.84;101404.88;4987119;28;20029;-56
2023/06/30 01:03:27;;;;;;;11.68;4.88;;;;;;;14.51;94.92;101414.41;4986698;28;20034;-56
2023/06/30 01:06:03;;;;;;;11.07;4.83;;;;;;;14.53;95.07;101413.59;4981637;28;21875;-56
2023/06/30 01:08:40;;;;;;;14.13;5.05;;;;;;;14.59;95.51;101415.44;4977903;28;20045;-56
2023/06/30 01:11:06;;;;;;;11.20;4.53;;;;;;;14.67;95.57;101419.09;4978574;28;21403;-57
2023/06/30 01:13:32;;;;;;;11.35;5.35;;;;;;;14.70;94.89;101413.91;4978181;28;20042;-56
2023/06/30 01:15:58;;;;;;;14.13;4.80;;;;;;;14.73;94.79;101418.28;4978991;28;20022;-56
2023/06/30 01:18:26;;;;;;;12.52;4.75;;;;;;;14.71;94.13;101418.25;4977596;28;20030;-56
2023/06/30 01:20:52;;;;;;;13.18;5.10;;;;;;;14.68;94.41;101410.34;4987300;28;20054;-56
2023/06/30 01:23:31;;;;;;;10.95;4.90;;;;;;;14.69;94.63;101417.38;4992838;28;20081;-56
2023/06/30 01:25:58;;;;;;;10.10;4.82;;;;;;;14.72;94.71;101416.53;4992850;28;20026;-56
2023/06/30 01:28:27;;;;;;;11.88;5.35;;;;;;;14.73;94.72;101424.44;4994591;28;20106;-57
2023/06/30 01:30:54;;;;;;;9.27;4.90;;;;;;;14.71;94.24;101420.88;4994039;28;20034;-56
2023/06/30 01:33:19;;;;;;;9.45;4.43;;;;;;;14.70;94.41;101416.53;4991305;28;20058;-56
2023/06/30 01:35:44;;;;;;;12.30;4.78;;;;;;;14.70;94.65;101410.38;4990838;28;20030;-56
2023/06/30 01:38:10;;;;;;;9.93;4.57;;;;;;;14.72;93.96;101416.53;4993000;28;20083;-56
2023/06/30 01:40:35;;;;;;;12.32;4.80;;;;;;;14.64;94.13;101418.16;4992910;28;20057;-56
2023/06/30 01:43:00;;;;;;;11.52;4.57;;;;;;;14.55;94.39;101413.59;4993432;28;20629;-56
2023/06/30 01:45:27;;;;;;;11.48;4.05;;;;;;;14.50;94.85;101404.81;4974746;28;20493;-55
2023/06/30 01:47:53;;;;;;;10.13;4.53;;;;;;;14.44;94.46;101398.59;4974039;28;20172;-56
2023/06/30 01:50:20;;;;;;;13.30;4.93;;;;;;;14.37;94.77;101399.34;4992419;28;20436;-56
2023/06/30 01:52:45;;;;;;;11.38;4.47;;;;;;;14.35;95.21;101395.81;4990923;28;20029;-56
2023/06/30 01:55:11;;;;;;;9.15;4.53;;;;;;;14.32;94.42;101400.13;4987368;28;20430;-56
2023/06/30 01:57:36;;;;;;;12.30;4.50;;;;;;;14.29;94.60;101400.06;4984519;28;20505;-56
2023/06/30 02:00:02;;;;;;;12.05;4.95;;;;;;;14.27;94.84;101397.41;4984119;28;20026;-56
2023/06/30 02:02:28;;;;;;;11.70;4.32;;;;;;;14.26;94.40;101393.94;4982954;28;20485;-56
2023/06/30 02:04:53;;;;;;;11.95;4.82;;;;;;;14.25;94.08;101396.50;4983325;28;20038;-56
2023/06/30 02:07:18;;;;;;;10.40;4.60;;;;;;;14.19;94.03;101394.69;4984244;28;20042;-56
2023/06/30 02:09:43;;;;;;;12.00;4.90;;;;;;;14.12;93.87;101394.53;4984455;28;20049;-56
2023/06/30 02:12:09;;;;;;;10.73;4.40;;;;;;;14.07;93.92;101392.69;4994003;28;20029;-56
2023/06/30 02:14:34;;;;;;;10.65;5.07;;;;;;;14.03;93.53;101390.00;4991950;28;20033;-56
2023/06/30 02:16:59;;;;;;;11.20;4.45;;;;;;;13.98;93.84;101392.53;4990035;28;21291;-56
2023/06/30 02:19:25;;;;;;;14.60;4.60;;;;;;;13.96;93.91;101399.50;4992934;28;20038;-56
2023/06/30 02:21:50;;;;;;;13.10;4.45;;;;;;;14.00;93.85;101390.81;4992970;28;20023;-56
2023/06/30 02:24:16;;;;;;;9.38;4.05;;;;;;;14.05;93.83;101396.16;4995038;28;20144;-56
2023/06/30 02:26:42;;;;;;;12.27;4.38;;;;;;;14.02;92.87;101394.38;4994587;28;20022;-56
2023/06/30 02:29:07;;;;;;;11.95;4.82;;;;;;;14.04;92.87;101391.78;4993412;28;20551;-56
2023/06/30 02:31:32;;;;;;;11.63;4.57;;;;;;;14.08;92.36;101394.47;4992601;28;20025;-56
2023/06/30 02:33:57;;;;;;;11.32;4.80;;;;;;;14.05;92.11;101397.03;4991789;28;20065;-56
2023/06/30 02:36:23;;;;;;;10.85;4.30;;;;;;;14.05;91.87;101397.03;4993097;28;20026;-56
2023/06/30 02:38:48;;;;;;;9.93;4.28;;;;;;;14.04;92.09;101402.25;4994302;28;20595;-56
2023/06/30 02:41:13;;;;;;;10.32;4.25;;;;;;;14.00;92.15;101406.53;4989351;28;20026;-56
2023/06/30 02:43:39;;;;;;;11.00;4.47;;;;;;;13.97;92.34;101410.84;4987706;28;20018;-56
2023/06/30 02:46:04;;;;;;;10.38;4.63;;;;;;;13.92;92.56;101418.63;4991059;28;20057;-56
2023/06/30 02:48:29;;;;;;;9.43;4.00;;;;;;;13.89;92.70;101418.59;4993564;28;20406;-56
2023/06/30 02:50:54;;;;;;;12.18;5.10;;;;;;;13.83;92.84;101418.44;4993847;28;20088;-56
2023/06/30 02:53:20;;;;;;;11.45;4.50;;;;;;;13.78;93.47;101425.34;4989145;28;20022;-56
2023/06/30 02:55:45;;;;;;;12.70;4.60;;;;;;;13.72;93.73;101423.47;4990509;28;20054;-56
2023/06/30 02:58:10;;;;;;;12.52;4.38;;;;;;;13.72;93.70;101431.34;4991857;28;20034;-55
2023/06/30 03:00:36;;;;;;;10.00;4.50;;;;;;;13.69;93.45;101429.53;4990945;28;20030;-56
2023/06/30 03:03:04;;;;;;;11.48;4.63;;;;;;;13.69;93.56;101428.66;4993124;28;20033;-56
2023/06/30 03:05:30;;;;;;;14.48;5.07;;;;;;;13.66;93.65;101431.22;4991760;28;20030;-56
2023/06/30 03:07:55;;;;;;;12.70;5.13;;;;;;;13.62;93.54;101426.78;4991951;28;20030;-57
2023/06/30 03:10:20;;;;;;;10.50;4.57;;;;;;;13.60;93.49;101424.13;4988257;28;20026;-56
2023/06/30 03:12:45;;;;;;;14.38;4.95;;;;;;;13.58;93.51;101428.44;4991597;28;20018;-57
2023/06/30 03:15:11;;;;;;;13.95;4.95;;;;;;;13.57;93.60;101417.06;4996804;28;20030;-56
2023/06/30 03:17:36;;;;;;;11.20;5.10;;;;;;;13.56;93.60;101424.91;4996128;28;20034;-56
2023/06/30 03:20:10;;;;;;;9.73;4.50;;;;;;;13.53;93.24;101422.22;4995745;28;20029;-56
2023/06/30 03:22:35;;;;;;;11.88;5.13;;;;;;;13.45;93.60;101422.03;4994053;28;20030;-56
2023/06/30 03:25:00;;;;;;;9.30;5.07;;;;;;;13.35;94.16;101407.91;4997022;28;20184;-56
2023/06/30 03:27:25;;;;;;;13.48;5.53;;;;;;;13.30;94.44;101417.34;4993502;28;20022;-56
2023/06/30 03:29:51;;;;;;;9.50;4.80;;;;;;;13.28;94.88;101411.22;4996991;28;20610;-56
2023/06/30 03:32:16;;;;;;;13.15;5.07;;;;;;;13.26;94.45;101415.50;4993829;28;20026;-56
2023/06/30 03:34:41;;;;;;;11.18;5.10;;;;;;;13.20;93.88;101412.75;4995001;28;20412;-56
2023/06/30 03:37:07;;;;;;;12.52;5.05;;;;;;;13.20;94.57;101415.38;4992602;28;20026;-55
2023/06/30 03:39:32;;;;;;;12.90;5.20;;;;;;;13.20;94.48;101404.91;4995306;28;20054;-57
2023/06/30 03:41:57;;;;;;;13.15;5.53;;;;;;;13.20;94.66;101415.38;4993991;28;20031;-56
2023/06/30 03:44:23;;;;;;;9.50;5.30;;;;;;;13.15;94.60;101406.53;4993059;28;20515;-56
2023/06/30 03:46:48;;;;;;;16.65;5.55;;;;;;;13.11;94.97;101402.09;4995276;28;20026;-56
2023/06/30 03:49:13;;;;;;;11.52;5.45;;;;;;;13.08;95.17;101412.47;4991480;28;20032;-56
2023/06/30 03:51:38;;;;;;;9.48;5.18;;;;;;;13.07;95.01;101410.72;4994635;28;20102;-56
2023/06/30 03:54:04;;;;;;;13.93;5.70;;;;;;;13.05;95.27;101406.34;4997518;28;20026;-56
2023/06/30 03:56:29;;;;;;;13.68;5.65;;;;;;;13.04;95.21;101404.56;4996656;28;20072;-56
2023/06/30 03:58:54;;;;;;;11.07;5.38;;;;;;;13.04;94.65;101404.56;4988677;28;20022;-56
2023/06/30 04:01:20;;;;;;;13.40;5.70;;;;;;;13.02;94.82;101402.75;4991857;28;20026;-56
2023/06/30 04:03:46;;;;;;;10.40;5.55;;;;;;;12.99;94.62;101400.06;4993749;28;20116;-56
2023/06/30 04:06:11;;;;;;;14.60;6.20;;;;;;;12.99;95.17;101402.69;4996417;28;20034;-56
2023/06/30 04:08:36;;;;;;;13.45;6.05;;;;;;;12.99;95.44;101403.59;4996556;28;20496;-56
2023/06/30 04:11:02;;;;;;;12.10;6.20;;;;;;;12.99;95.38;101400.06;4995866;28;20027;-56
2023/06/30 04:13:27;;;;;;;14.27;6.43;;;;;;;12.99;95.37;101408.81;4995314;28;20050;-56
2023/06/30 04:15:53;;;;;;;13.02;6.25;;;;;;;12.96;95.23;101411.38;4992758;28;20033;-55
2023/06/30 04:18:18;;;;;;;14.43;5.97;;;;;;;12.95;94.75;101413.97;4991414;28;21986;-56
2023/06/30 04:20:44;;;;;;;12.80;6.15;;;;;;;12.96;95.35;101410.47;4993446;28;20021;-55
2023/06/30 04:23:09;;;;;;;12.60;5.78;;;;;;;12.97;95.48;101415.72;4994809;28;20037;-56
2023/06/30 04:25:35;;;;;;;12.90;6.35;;;;;;;12.97;95.67;101413.13;4992131;28;20038;-56
2023/06/30 04:28:01;;;;;;;10.48;6.05;;;;;;;12.97;96.03;101415.72;4994667;28;20477;-56
2023/06/30 04:30:26;;;;;;;13.10;6.38;;;;;;;12.95;96.60;101413.97;4996479;28;20028;-56
2023/06/30 04:32:51;;;;;;;15.55;6.57;;;;;;;12.93;96.60;101403.44;4996032;28;20034;-56
2023/06/30 04:35:17;;;;;;;12.27;6.72;;;;;;;12.92;96.54;101414.75;4996133;28;20109;-56
2023/06/30 04:37:42;;;;;;;12.05;7.10;;;;;;;12.91;96.28;101413.00;4995065;28;20607;-56
2023/06/30 04:40:08;;;;;;;15.65;6.72;;;;;;;12.93;96.87;101408.66;4995570;28;20046;-56
2023/06/30 04:42:35;;;;;;;13.68;7.43;;;;;;;12.92;96.58;101409.53;4995676;28;20037;-56
2023/06/30 04:45:00;;;;;;;12.27;6.85;;;;;;;12.93;96.71;101402.56;4992248;28;20473;-56
2023/06/30 04:47:27;;;;;;;13.43;7.03;;;;;;;12.93;96.53;101413.03;4993523;28;20033;-56
2023/06/30 04:49:53;;;;;;;15.80;7.70;;;;;;;12.94;96.54;101407.81;4994114;28;20140;-56
2023/06/30 04:52:18;;;;;;;13.70;7.63;;;;;;;12.96;96.54;101411.38;4995460;28;20101;-55
2023/06/30 04:54:43;;;;;;;13.13;7.05;;;;;;;12.97;96.12;101415.72;4996147;28;20030;-56
2023/06/30 04:57:09;;;;;;;15.13;7.13;;;;;;;12.99;96.53;101415.78;4994292;28;20076;-56
2023/06/30 04:59:35;;;;;;;12.93;7.15;;;;;;;13.00;96.32;101414.94;4988650;28;20033;-56
2023/06/30 05:02:00;;;;;;;14.32;7.07;;;;;;;12.99;96.54;101421.91;4994035;28;20033;-56
2023/06/30 05:04:25;;;;;;;15.20;6.72;;;;;;;12.99;95.92;101413.16;4992232;28;20474;-56
2023/06/30 05:06:50;;;;;;;12.38;6.30;;;;;;;13.03;96.58;101412.38;4994386;28;20378;-56
2023/06/30 05:09:16;;;;;;;15.07;7.00;;;;;;;13.04;96.54;101412.41;4995040;28;20477;-56
2023/06/30 05:11:41;;;;;;;13.60;6.38;;;;;;;13.10;96.47;101413.41;4989391;28;20034;-55
2023/06/30 05:14:06;;;;;;;15.63;7.03;;;;;;;13.10;96.98;101411.66;4994252;28;20173;-55
2023/06/30 05:16:31;;;;;;;16.52;7.80;;;;;;;13.11;96.62;101412.56;4989498;28;20124;-54
2023/06/30 05:18:57;;;;;;;15.80;7.00;;;;;;;13.15;97.47;101406.53;4993485;28;20494;-56
2023/06/30 05:21:22;;;;;;;11.00;6.50;;;;;;;13.19;97.45;101405.75;4994406;28;20034;-56
2023/06/30 05:23:47;;;;;;;13.02;6.38;;;;;;;13.20;97.08;101405.78;4993482;28;20559;-56
2023/06/30 05:26:13;;;;;;;11.07;6.40;;;;;;;13.24;96.56;101412.00;4991203;28;20029;-56
2023/06/30 05:28:38;;;;;;;11.40;6.18;;;;;;;13.29;96.52;101414.69;4993208;28;20451;-56
2023/06/30 05:31:05;;;;;;;8.82;5.53;;;;;;;13.33;96.75;101406.06;4991382;28;20428;-56
2023/06/30 05:33:30;;;;;;;13.18;5.82;;;;;;;13.40;96.06;101415.84;4991287;28;20033;-56
2023/06/30 05:35:58;;;;;;;11.68;6.18;;;;;;;13.45;96.22;101408.97;5027364;23;20050;-96
2023/06/30 05:38:29;;;;;;;12.85;6.53;;;;;;;13.47;95.52;101407.28;4994691;28;20033;-96
2023/06/30 05:40:58;;;;;;;13.27;6.38;;;;;;;13.52;95.82;101403.00;4993233;28;20021;-95
2023/06/30 05:43:26;;;;;;;;;;;;;;;13.60;94.83;101407.50;4994962;28;20036;-94
2023/06/30 05:45:54;;;;;;;11.65;6.07;;;;;;;13.62;95.08;101414.53;4990794;28;20434;-96
2023/06/30 05:48:28;;;;;;;13.02;6.00;;;;;;;13.69;94.78;101410.31;5004428;28;20089;-95
2023/06/30 05:50:54;;;;;;;13.63;6.50;;;;;;;13.75;95.52;101415.69;4995710;28;20502;-96
2023/06/30 05:53:19;;;;;;;11.88;6.30;;;;;;;13.80;95.14;101410.53;4997897;28;20017;-96
2023/06/30 05:55:55;;;;;;;12.52;6.05;;;;;;;13.86;95.03;101415.88;4992645;28;20471;-96
2023/06/30 05:58:27;;;;;;;12.52;6.72;;;;;;;13.92;95.59;101408.16;4992674;28;20036;-95
2023/06/30 06:00:55;;;;;;;14.40;6.47;;;;;;;14.00;95.22;101411.78;4989443;28;20529;-96
2023/06/30 06:03:21;;;;;;;16.67;6.73;;;;;;;14.07;95.75;101413.66;4995103;28;20029;-96
2023/06/30 06:05:56;;;;;;;12.60;6.97;;;;;;;14.15;94.96;101408.56;4993853;28;20092;-94
2023/06/30 06:08:47;;;;;;;13.80;6.63;;;;;;;14.23;94.89;101408.69;4995356;28;20032;-96
2023/06/30 06:11:20;;;;;;;22.13;9.13;;;;;;;14.32;93.99;101408.84;4990723;28;20077;-95
2023/06/30 06:13:51;;;;;;;13.02;6.28;;;;;;;14.40;92.27;101414.25;4974212;28;20022;-96
2023/06/30 06:16:26;;;;;;;;;;;;;;;;;;;;;
2023/06/30 06:18:52;;;;;;;15.65;6.03;;;;;;;14.56;89.75;101412.75;4992538;28;20034;-95
2023/06/30 06:21:18;;;;;;;11.90;5.55;;;;;;;14.62;88.82;101407.63;4974085;28;20128;-96
2023/06/30 06:23:43;;;;;;;9.18;5.30;;;;;;;14.70;88.23;101408.66;4973025;28;20502;-95
2023/06/30 06:26:24;;;;;;;;;;;;;;;;;;;;;
2023/06/30 06:28:50;;;;;;;11.57;5.50;;;;;;;14.84;89.51;101427.22;4988727;28;20041;-96
2023/06/30 06:31:15;;;;;;;9.73;6.30;;;;;;;14.94;89.81;101425.63;4971622;28;20104;-96
2023/06/30 06:33:51;;;;;;;11.50;6.05;;;;;;;15.01;88.94;101418.72;4975735;28;20018;-96
2023/06/30 06:36:21;;;;;;;12.25;5.43;;;;;;;15.18;88.93;101421.56;4959556;28;20583;-96
2023/06/30 06:38:47;;;;;;;11.90;5.88;;;;;;;15.27;85.21;101426.97;4954851;28;20033;-96
2023/06/30 06:41:12;;;;;;;13.23;6.22;;;;;;;15.32;86.74;101427.91;4968835;23;20054;-55
2023/06/30 06:43:37;;;;;;;13.25;5.97;;;;;;;15.40;85.71;101423.63;4964523;28;20041;-56
2023/06/30 06:46:02;;;;;;;11.27;5.63;;;;;;;15.52;88.47;101425.53;4964574;28;20026;-56
2023/06/30 06:48:28;;;;;;;13.75;6.72;;;;;;;15.59;88.02;101431.75;4964896;28;20045;-55
2023/06/30 06:50:54;;;;;;;11.95;5.75;;;;;;;15.71;83.38;101425.75;4964254;28;20030;-55
2023/06/30 06:53:21;;;;;;;11.95;5.90;;;;;;;15.73;84.21;101422.28;4964751;28;20387;-56
2023/06/30 06:55:48;;;;;;;12.65;6.20;;;;;;;15.82;84.14;101411.91;4963083;28;20038;-56
2023/06/30 06:58:14;;;;;;;14.52;6.25;;;;;;;15.86;83.21;101414.56;4962278;28;20026;-55
2023/06/30 07:00:39;;;;;;;9.95;5.70;;;;;;;15.95;83.49;101419.94;4961007;28;20397;-55
2023/06/30 07:03:04;;;;;;;8.98;4.10;;;;;;;16.04;80.33;101417.41;4961477;28;20716;-55
2023/06/30 07:05:31;;;;;;;9.93;4.72;;;;;;;16.16;79.80;101424.53;4963316;28;20030;-56
2023/06/30 07:07:56;;;;;;;9.35;4.75;;;;;;;16.24;79.55;101422.84;4963743;28;20038;-56
2023/06/30 07:10:22;;;;;;;8.35;4.30;;;;;;;16.34;78.86;101424.69;4962255;28;20030;-56
2023/06/30 07:12:47;;;;;;;5.75;3.00;;;;;;;16.43;74.46;101429.16;4965282;28;20034;-56
2023/06/30 07:15:12;;;;;;;7.82;3.10;;;;;;;16.52;76.64;101429.25;4962974;28;20035;-56
2023/06/30 07:17:38;;;;;;;6.53;2.92;;;;;;;16.57;70.65;101428.38;4960305;28;20061;-56
2023/06/30 07:20:03;;;;;;;6.20;2.55;;;;;;;16.60;72.55;101428.44;5008268;23;20129;-93
2023/06/30 07:22:29;;;;;;;7.88;2.85;;;;;;;16.66;70.35;101426.72;4973700;28;20158;-93
2023/06/30 07:24:55;;;;;;;6.05;2.50;;;;;;;16.78;72.74;101428.56;4979733;28;20034;-94
2023/06/30 07:27:20;;;;;;;5.40;2.40;;;;;;;16.94;67.76;101428.72;4982895;28;20042;-95
2023/06/30 07:29:49;;;;;;;6.88;2.80;;;;;;;17.02;68.49;101429.66;4997315;28;20037;-92
2023/06/30 07:32:14;;;;;;;7.72;2.90;;;;;;;17.15;68.47;101431.47;4998617;28;20026;-93
2023/06/30 07:34:45;;;;;;;8.48;2.80;;;;;;;17.29;72.20;101423.66;4997843;28;20048;-93
2023/06/30 07:37:10;;;;;;;5.57;2.50;;;;;;;17.41;68.45;101430.75;4981741;28;20057;-94
2023/06/30 07:39:39;;;;;;;7.68;2.60;;;;;;;17.48;66.43;101434.25;4989291;28;20097;-96
2023/06/30 07:42:04;;;;;;;6.00;2.63;;;;;;;17.56;67.01;101433.41;4983284;28;20034;-96
2023/06/30 07:44:30;;;;;;;7.55;2.58;;;;;;;17.63;68.29;101429.06;4986678;28;20033;-94
2023/06/30 07:46:55;;;;;;;5.75;3.03;;;;;;;17.64;64.30;101430.84;4980150;28;20722;-95
2023/06/30 07:49:24;;;;;;;7.50;2.67;;;;;;;17.71;66.00;101437.00;4985926;28;20021;-95
2023/06/30 07:51:50;;;;;;;;;;;;;;;17.90;64.72;101423.03;4980737;28;20077;-95
2023/06/30 07:54:19;;;;;;;8.00;2.72;;;;;;;17.90;61.17;101425.69;4985730;28;20409;-95
2023/06/30 07:56:49;;;;;;;6.22;2.10;;;;;;;17.95;64.79;101425.69;4978657;28;20033;-95
2023/06/30 07:59:17;;;;;;;5.22;2.25;;;;;;;18.06;64.72;101421.31;4987990;28;21095;-95
2023/06/30 08:01:43;;;;;;;4.47;2.40;;;;;;;18.16;63.81;101422.22;4987162;28;20615;-95
2023/06/30 08:04:08;;;;;;;6.10;2.55;;;;;;;18.24;61.59;101431.00;5003248;28;20053;-95
2023/06/30 08:06:34;;;;;;;6.32;2.30;;;;;;;18.31;62.85;101428.41;4982666;28;20403;-95
2023/06/30 08:08:59;;;;;;;7.07;2.45;;;;;;;18.41;63.03;101424.88;4983521;28;20400;-95
2023/06/30 08:11:30;;;;;;;5.07;2.38;;;;;;;18.48;60.54;101421.38;4981530;28;20429;-96
2023/06/30 08:13:56;;;;;;;5.53;2.42;;;;;;;18.60;63.22;101421.34;4963317;28;20037;-95
2023/06/30 08:16:22;;;;;;;7.40;2.50;;;;;;;18.71;59.91;101428.38;4982416;28;20030;-95
2023/06/30 08:18:50;;;;;;;9.75;2.60;;;;;;;18.75;59.83;101422.22;4983679;28;20454;-95
2023/06/30 08:21:15;;;;;;;8.00;2.20;;;;;;;18.79;60.94;101421.34;4965091;28;20051;-95
2023/06/30 08:23:41;;;;;;;7.85;2.60;;;;;;;18.87;60.84;101424.00;4964665;28;20035;-96
2023/06/30 08:26:09;;;;;;;4.45;2.08;;;;;;;19.00;57.82;101422.22;4982709;28;20037;-95
2023/06/30 08:28:37;;;;;;;6.40;2.67;;;;;;;19.16;57.39;101421.31;4964482;28;20031;-95
2023/06/30 08:31:02;;;;;;;4.22;2.22;;;;;;;19.21;57.88;101416.00;4963435;28;20038;-93
2023/06/30 08:33:28;;;;;;;8.43;2.67;;;;;;;19.23;58.56;101423.06;4967340;28;20010;-94
2023/06/30 08:35:58;;;;;;;6.65;2.60;;;;;;;19.36;59.26;101418.56;4965097;28;20113;-93
2023/06/30 08:38:24;;;;;;;5.72;2.33;;;;;;;19.42;58.03;101415.94;4966465;28;20109;-93
2023/06/30 08:40:52;;;;;;;5.05;2.20;;;;;;;19.53;57.21;101415.00;4984180;28;20110;-92
2023/06/30 08:43:24;;;;;;;6.20;2.20;;;;;;;19.61;56.76;101406.16;4966608;28;20026;-93
2023/06/30 08:45:53;;;;;;;5.55;2.38;;;;;;;19.72;56.17;101399.94;4964038;28;20035;-94
2023/06/30 08:48:24;;;;;;;;;;;;;;;19.81;59.27;101399.91;4971656;28;20408;-94
2023/06/30 08:50:50;;;;;;;7.60;4.05;;;;;;;19.86;56.63;101399.91;4964838;28;19925;-94
2023/06/30 08:53:20;;;;;;;4.75;2.33;;;;;;;19.86;55.43;101400.75;4966192;28;20023;-95
2023/06/30 08:55:48;;;;;;;4.80;2.28;;;;;;;19.95;56.01;101399.81;4968962;28;20053;-96
2023/06/30 08:58:17;;;;;;;6.72;2.33;;;;;;;19.95;53.57;101389.25;4970643;28;20028;-95
2023/06/30 09:00:48;;;;;;;6.32;2.25;;;;;;;20.06;56.34;101394.44;4972482;28;20019;-95
2023/06/30 09:03:16;;;;;;;5.95;2.47;;;;;;;20.31;60.52;101392.50;4972265;28;20034;-96
2023/06/30 09:05:43;;;;;;;6.27;2.70;;;;;;;20.39;56.40;101389.78;4977288;23;20053;-57
2023/06/30 09:08:19;;;;;;;6.53;2.72;;;;;;;20.53;59.45;101390.56;4975376;28;20036;-57
2023/06/30 09:10:47;;;;;;;5.50;2.30;;;;;;;20.64;54.19;101399.28;4968229;28;20034;-58
2023/06/30 09:13:14;;;;;;;7.53;2.90;;;;;;;20.53;53.24;101381.75;4971639;28;20054;-58
2023/06/30 09:15:40;;;;;;;5.53;2.60;;;;;;;20.41;56.49;101391.53;4975612;28;20407;-58
2023/06/30 09:18:06;;;;;;;6.35;2.70;;;;;;;20.33;55.05;101388.06;4973136;28;20033;-58
2023/06/30 09:20:31;;;;;;;6.43;2.65;;;;;;;20.24;55.98;101389.03;4972813;28;20045;-58
2023/06/30 09:22:57;;;;;;;6.93;2.83;;;;;;;20.24;55.69;101382.88;4973156;28;20041;-57
2023/06/30 09:25:25;;;;;;;3.80;2.50;;;;;;;20.30;53.73;101388.97;4972284;28;20026;-57
2023/06/30 09:27:51;;;;;;;6.38;2.70;;;;;;;20.35;54.47;101383.66;4975047;28;20387;-57
2023/06/30 09:30:17;;;;;;;6.75;2.95;;;;;;;20.36;51.86;101389.81;4972199;28;20038;-58
2023/06/30 09:32:42;;;;;;;6.85;2.67;;;;;;;20.12;51.45;101383.84;4970610;28;20030;-57
2023/06/30 09:35:12;;;;;;;6.57;3.00;;;;;;;20.10;52.64;101378.56;4968346;28;20046;-57
2023/06/30 09:37:41;;;;;;;6.00;2.60;;;;;;;20.00;52.89;101384.78;5063245;23;20557;-57
2023/06/30 09:40:10;;;;;;;;;;;;;;;20.04;54.69;101385.66;4982987;28;20046;-57
2023/06/30 09:42:35;;;;;;;5.38;3.03;;;;;;;20.20;54.18;101376.72;4989627;28;20432;-57
2023/06/30 09:45:01;;;;;;;5.75;2.80;;;;;;;20.44;53.33;101372.13;4995966;28;20037;-58
2023/06/30 09:47:26;;;;;;;7.50;3.05;;;;;;;20.48;53.73;101373.84;4997753;28;20107;-58
2023/06/30 09:49:53;;;;;;;6.55;2.88;;;;;;;20.54;55.13;101376.44;4997307;28;20026;-58
2023/06/30 09:52:26;;;;;;;6.47;2.67;;;;;;;20.63;53.13;101373.69;4997698;28;20064;-58
2023/06/30 09:54:51;;;;;;;5.18;2.30;;;;;;;20.55;50.50;101372.91;4997651;28;20034;-58
2023/06/30 09:57:16;;;;;;;5.38;2.40;;;;;;;20.46;52.00;101378.25;4995722;28;20029;-58
2023/06/30 09:59:42;;;;;;;4.88;2.70;;;;;;;20.52;55.20;101372.91;4996806;28;20092;-58
2023/06/30 10:02:07;;;;;;;5.22;2.75;;;;;;;20.71;52.18;101372.75;4996722;28;20129;-58
2023/06/30 10:04:33;;;;;;;5.03;2.70;;;;;;;21.23;56.56;101371.31;4987927;28;20504;-58
2023/06/30 10:07:01;;;;;;;5.60;2.75;;;;;;;21.40;50.54;101369.31;4997342;28;20014;-67
2023/06/30 10:09:28;;;;;;;5.53;3.13;;;;;;;21.47;53.60;101364.81;4996183;28;20023;-68
2023/06/30 10:11:57;;;;;;;7.05;2.78;;;;;;;21.54;50.12;101361.22;4997387;28;20029;-68
2023/06/30 10:14:32;;;;;;;5.50;2.72;;;;;;;21.61;51.83;101362.91;4988266;28;20026;-67
2023/06/30 10:17:01;;;;;;;7.18;3.17;;;;;;;21.64;51.03;101362.84;4996841;28;20045;-67
2023/06/30 10:19:28;;;;;;;5.90;3.38;;;;;;;21.71;51.77;101361.88;4996432;28;20030;-67
2023/06/30 10:21:54;;;;;;;7.28;3.30;;;;;;;21.78;49.45;101353.81;4996349;28;20041;-68
2023/06/30 10:24:25;;;;;;;5.32;3.10;;;;;;;21.96;50.96;101352.66;4994548;28;20025;-67
2023/06/30 10:26:51;;;;;;;6.03;3.00;;;;;;;22.17;49.31;101354.09;4994732;28;20060;-68
2023/06/30 10:29:17;;;;;;;6.07;3.00;;;;;;;22.13;45.77;101344.41;4995901;28;20108;-67
2023/06/30 10:31:43;;;;;;;6.70;3.22;;;;;;;21.88;46.79;101344.81;4997214;28;20077;-67
2023/06/30 10:34:10;;;;;;;5.85;2.97;;;;;;;21.79;48.90;101351.13;4996483;28;20454;-68
2023/06/30 10:36:35;;;;;;;4.85;2.72;;;;;;;21.85;47.15;101350.16;4994075;28;20596;-67
2023/06/30 10:39:01;;;;;;;5.93;2.83;;;;;;;21.99;48.54;101342.88;4984382;28;20042;-68
2023/06/30 10:41:26;;;;;;;4.00;2.50;;;;;;;22.13;48.13;101345.31;4971840;28;20402;-67
2023/06/30 10:44:08;;;;;;;5.05;2.83;;;;;;;22.33;48.63;101337.03;4972492;28;20030;-67
2023/06/30 10:46:40;;;;;;;5.95;2.97;;;;;;;22.34;46.12;101338.78;4969717;28;20356;-68
2023/06/30 10:49:05;;;;;;;6.22;3.00;;;;;;;22.28;47.35;101333.53;4970619;28;20041;-68
2023/06/30 10:51:35;;;;;;;5.32;2.92;;;;;;;22.35;48.49;101339.66;4969660;28;20391;-68
2023/06/30 10:54:00;;;;;;;6.22;2.80;;;;;;;22.56;47.33;101333.06;4970922;28;20145;-68
2023/06/30 10:56:27;;;;;;;6.55;2.88;;;;;;;22.83;45.86;101338.78;4974771;28;20137;-68
2023/06/30 10:58:57;;;;;;;5.60;2.88;;;;;;;22.90;46.21;101327.13;4969674;28;20528;-67
2023/06/30 11:01:23;;;;;;;5.55;2.78;;;;;;;23.01;45.89;101319.78;4967303;28;20489;-67
2023/06/30 11:04:10;;;;;;;6.90;2.83;;;;;;;23.21;45.73;101318.53;4967613;28;20122;-68
2023/06/30 11:06:36;;;;;;;5.88;2.55;;;;;;;23.33;45.32;101320.91;4978524;28;20038;-68
2023/06/30 11:09:09;;;;;;;6.47;2.20;;;;;;;23.43;44.34;101309.19;4975329;28;20055;-67
2023/06/30 11:11:48;;;;;;;5.45;2.80;;;;;;;23.62;46.88;101316.72;4967903;28;20038;-68
2023/06/30 11:14:13;;;;;;;4.75;2.33;;;;;;;23.68;43.58;101311.28;4977601;28;20026;-66
2023/06/30 11:17:02;;;;;;;5.80;2.60;;;;;;;23.72;44.01;101312.97;4971635;28;20022;-68
2023/06/30 11:19:27;;;;;;;6.55;2.60;;;;;;;23.54;43.86;101308.06;4971898;28;20114;-68
2023/06/30 11:22:29;;;;;;;4.15;2.75;;;;;;;23.48;44.70;101308.19;4967146;28;20109;-68
2023/06/30 11:24:55;;;;;;;4.25;2.70;;;;;;;23.21;44.35;101305.25;4925944;28;21530;-68